Ride Results

Tom Quilty Gold Cup (08-06-1990)
Ride distance: 160.0 km

Outcomes - Tom Quilty Gold Cup (08-06-1990)
Division No. of Entries Retired / DNE Completed Withdrawn Ineligible V/O Percentage Completed
HW 55 - 22 7 - 26 40.00%
MW 164 - 87 10 - 67 53.05%
LW 61 - 35 4 - 22 57.38%
JN 21 - 10 - 1 10 47.62%
Totals 301 - 154 21 1 125 51.16%
Results - Tom Quilty Gold Cup (08-06-1990)
No. Rider Horse Place Time Leg Speeds Total
Km/Hr
H/R bpm
Heavyweight
100 Andrew Bailey Tantawanglo Hamal Zahab 1 (BC) 10:52:21 12.3, 14.9, 23.0, 12.4 14.72 40, 40, 50, 47, 46 (Avg:45)
247 Dennis Smith Torremolinos 2 13:46:17 13.2, 10.2, 13.3, 10.3 11.62 54, 44, 44, 50, 48 (Avg:46)
244 Gordon Flaherty Sharahd Homer 3 14:37:25 11.3, 10.3, 13.6, 9.3 10.94 46, 46, 46, 52, 52 (Avg:49)
118 Mark Cameron Bara Park Brice 4 15:44:00 10.4, 10.0, 12.7, 8.3 10.17 32, 46, 45, 52, 50 (Avg:48)
101 Matthew Walker Parlour Mountain Petra 5 15:50:37 10.5, 9.7, 13.7, 7.9 10.10 36, 40, 42, 54, 45 (Avg:45)
255 Ron Haigh Alli Wolfie 6 16:18:58 11.9, 10.3, 13.1, 6.5 9.81 28, 36, 44, 59, 52 (Avg:47)
260 Len Law Deltry's Boy 7 16:26:31 13.1, 13.0, 11.3, 5.8 9.73 40, 48, 48, 58, 48 (Avg:50)
212 Norm Whitelaw Zane 8 17:33:27 9.7, 10.0, 13.2, 6.1 9.11 35, 40, 40, 54, 38 (Avg:43)
8 Mike Oloughlin Cassidy 9 17:33:33 10.7, 11.2, 9.0, 6.8 9.11 36, 44, 51, 52, 46 (Avg:48)
140 Len Manton Rocky Ridge Feathers 10 17:57:21 11.1, 9.9, 9.7, 6.3 8.91 32, 44, 56, 56, 44 (Avg:50)
164 Steve Finnane Glenallan Zared 11 17:57:26 10.6, 10.1, 11.3, 5.9 8.91 36, 48, 46, 59, 48 (Avg:50)
287 Michael Walker Sunstorm El-kheir 12 18:03:45 9.1, 10.1, 9.2, 7.3 8.86 38, 43, 48, 56, 44 (Avg:47)
10 Ron Morton Southwinds Smokey 13 18:13:57 11.9, 9.2, 8.9, 6.5 8.78 35, 50, 54, 52, 42 (Avg:49)
104 Bern Harvey Rowena Jack 14 18:52:22 9.0, 8.3, 9.5, 7.2 8.48 40, 44, 48, 50, 46 (Avg:47)
177 Andrew Hibberson Kelkette Park Ivan 15 19:04:14 8.3, 8.7, 9.1, 7.5 8.39 48, 48, 48, 56, 48 (Avg:50)
253 Chris Pollitt Anstley Genghis Khan 16 19:22:22 8.4, 8.0, 9.1, 7.4 8.26 48, 52, 48, 54, 48 (Avg:50)
37 Bruce Dalton Sam 17 19:23:20 9.2, 8.4, 7.9, 7.5 8.25 32, 44, 60, 48, 50 (Avg:50)
85 Dennis Dyason Lightwind Talia 18 19:30:20 9.0, 9.1, 9.4, 6.1 8.20 44, 42, 48, 48, 48 (Avg:46)
277 Alistair McKeown Pot Luck 19 19:52:35 9.5, 7.8, 8.5, 6.7 8.05 32, 44, 48, 53, 44 (Avg:47)
67 Clive Minter Clancy 20 20:04:30 8.8, 9.2, 8.0, 6.3 7.97 46, 40, 56, 58, 49 (Avg:50)
267 Di Kajar Lyndus Lad 21 20:18:26 8.0, 7.7, 8.2, 7.5 7.88 36, 52, 54, 54, 52 (Avg:53)
161 Peter Cole Manning Kadabbra 22 20:38:00 7.8, 8.1, 7.6, 7.4 7.75 36, 44, 58, 59, 54 (Avg:53)
96 Graham Williams True Blue Lame L4 0:00:00 12.7, 12.3, 13.9, 7.9 - 40, 42, 48, 53, 48 (Avg:47)
297 David Campbell K9 Lame L3 0:00:00 12.9, 12.4, 9.0 - 35, 48, 48, 58 (Avg:51)
31 Trevor Crotty Hargraes Freckles Heart Rate L3 0:00:00 9.0, 8.6, 8.5 - 40, 42, 48, 64 (Avg:51)
268 Graham Dugmore Magic Moffitt Withdrawn L3 0:00:00 - - 38, 48, 52, 58 (Avg:52)
134 Chris Gates Blairgowrie Blacklight Lame L3 0:00:00 10.9, 11.2, 9.7 - 38, 45, 50, 52 (Avg:49)
130 Malcolm Irvin Jacko Lame L3 0:00:00 9.7, 9.3, 8.8 - 36, 46, 48, 50 (Avg:48)
88 Andrew Jonkers Belimba Park Simonette Lame L3 0:00:00 9.8, 8.9, 8.6 - 36, 44, 44, 48 (Avg:45)
282 Derek Lamperd Endingo Withdrawn L3 0:00:00 - - 42, 47, 52, 58 (Avg:52)
233 David Nancarrow Mackellar Lame L3 0:00:00 10.5, 9.4, 8.6 - 40, 48, 51, 58 (Avg:52)
286 Laurie Nicolle Laurjil Osca Lame L3 0:00:00 9.5, 9.6, 8.4 - 36, 46, 52, 50 (Avg:49)
210 Laurence Telford Silver Withdrawn L3 0:00:00 - - 44, 48, 56, 59 (Avg:54)
50 David Beardsley Splash Heart Rate L2 0:00:00 8.7, 6.9 - 48, 54, 64 (Avg:59)
12 Max Beecroft Rastus Withdrawn L2 0:00:00 - - 36, 48, 50 (Avg:49)
168 Robert Berry Palphar Metabolics L2 0:00:00 9.9, 7.4 - 38, 46, 50 (Avg:48)
82 Kerry Bouffier Whiskey A-Go-Go Metabolics L2 0:00:00 11.8, 10.5 - 36, 44, 58 (Avg:51)
9 Errol Bradford Woodside Lame L2 0:00:00 11.0, 7.8 - 42, 52, 54 (Avg:53)
117 Helen Cameron Korella Shariff Heart Rate L2 0:00:00 10.3, 9.5 - 38, 49, 64 (Avg:56)
80 Brad Innes Patrone Gall or injury L2 0:00:00 8.4, 8.3 - 38, 52, 60 (Avg:56)
87 Tony Marshall Mr-Magoo Lame L2 0:00:00 11.3, 11.6 - 30, 42, 48 (Avg:45)
209 Rex Telford Stirling Heart Rate L2 0:00:00 10.5, 11.3 - 48, 52, 64 (Avg:58)
89 Denise Trollope Santarabia Perkal Lame L2 0:00:00 13.2, 10.9 - 36, 54, 60 (Avg:57)
160 Ian Tytler Warchief Withdrawn L2 0:00:00 - - 32, 48, 52 (Avg:50)
205 Stephen Deering Rajah Heart Rate L1 0:00:00 8.7 - 52, 60 (Avg:60)
103 Wayne Hegarty Melody's Flight Withdrawn L1 0:00:00 - - 40, 48 (Avg:48)
167 Ron Malone Triton Heart Rate L1 0:00:00 10.5 - 44, 58 (Avg:58)
211 Roy Noble Dusky Heart Rate L1 0:00:00 10.3 - 32, 56 (Avg:56)
64 Alan Triplady Kiwi Lame L1 0:00:00 8.5 - 34, 52 (Avg:52)
77 Ken Wescombe Taja's Pride Heart Rate L1 0:00:00 8.2 - 44, 70 (Avg:70)
169 Scott Whiting Kathane Surhys Lame L1 0:00:00 8.6 - 35, 44 (Avg:44)
225 Doug Woods Ricco Lame L1 0:00:00 8.1 - 36, 52 (Avg:52)
92 Denis Jeffery Jezza Lame P/R 0:00:00 - - 38
262 Garry Lewis Franchesca Lame P/R 0:00:00 - - 36
221 Robert Punicki Rex T Withdrawn P/R 0:00:00 - - 0
Middleweight
236 Brook Sample Sharahd Melodie 1 10:15:00 14.0, 15.2, 21.0, 13.8 15.61 34, 40, 48, 52, 56 (Avg:49)
245 Tom Thomsen Prince Aussie 2 10:24:00 13.1, 13.9, 23.0, 14.5 15.38 36, 48, 48, 44, 48 (Avg:47)
243 Barbara Macdonald Kelly 3 11:47:00 12.9, 15.1, 15.9, 11.2 13.58 36, 48, 52, 52, 56 (Avg:52)
242 June Petersen Wertaloona Lionel 3 11:47:00 11.7, 14.4, 18.3, 11.7 13.58 32, 48, 48, 48, 54 (Avg:49)
144 Mark Freeman Cedar Ridge Rob Roy 5 11:48:00 14.2, 15.2, 18.3, 9.5 13.56 42, 45, 48, 54, 52 (Avg:49)
184 Pauline Fletcher (Heffernan) Ned 6 12:14:00 13.7, 12.1, 16.4, 11.1 13.08 33, 48, 40, 48, 52 (Avg:47)
283 Ray Morley Maralinga Minstrel 7 12:19:00 12.6, 14.1, 17.5, 9.9 12.99 36, 40, 48, 58, 54 (Avg:50)
39 Morgan Arundel Eric 8 12:34:00 13.5, 12.4, 15.6, 10.3 12.73 40, 48, 50, 56, 50 (Avg:51)
23 Jeff Littledike Warrondi Pocklus 9 12:34:01 13.6, 12.1, 15.8, 10.4 12.73 38, 48, 51, 58, 53 (Avg:52)
241 Jim Farr Sharahd Cassandra 10 12:35:00 13.8, 11.5, 15.3, 11.0 12.72 36, 44, 48, 52, 52 (Avg:49)
197 Melva Keep Doran Park Minder 11 12:39:00 12.1, 12.1, 14.6, 11.9 12.65 36, 48, 50, 56, 50 (Avg:51)
94 Christine Froebel Mulawa True Grit 12 12:55:00 15.6, 11.2, 15.4, 9.4 12.39 32, 40, 46, 52, 60 (Avg:49)
121 Andrew Gleeson Tristram Selqua 12 12:55:00 11.3, 14.7, 16.3, 9.4 12.39 32, 46, 48, 50, 48 (Avg:48)
91 Paul Flack Cooerwull Pirate 14 13:01:00 9.9, 14.4, 15.0, 11.2 12.29 50, 48, 48, 40, 50 (Avg:46)
139 Lorraine Howarth Peppersfield Mallo 15 13:05:00 11.6, 12.4, 15.6, 10.3 12.23 33, 46, 48, 48, 52 (Avg:48)
98 Russell Adam Aloha Messiah 16 13:21:00 13.7, 13.1, 16.5, 8.0 11.99 32, 44, 57, 56, 57 (Avg:53)
86 Jan Neal Flamizak 17 13:22:00 12.5, 13.1, 15.5, 8.7 11.97 36, 40, 52, 58, 58 (Avg:52)
84 Warwick Sinfield Werriwa Jasmine 18 13:30:00 10.9, 11.2, 15.5, 10.7 11.85 36, 40, 48, 56, 57 (Avg:50)
190 Julie Woods Gable 19 13:40:00 10.7, 11.4, 13.1, 11.7 11.71 36, 44, 50, 52, 52 (Avg:49)
6 Cherie Cowan Waitara Red Ned 20 13:42:00 10.9, 11.8, 13.9, 10.5 11.68 26, 48, 44, 44, 45 (Avg:45)
237 Chris Forrester Mandala Galactic 21 13:46:00 13.2, 10.2, 13.3, 10.3 11.62 48, 51, 44, 48, 54 (Avg:49)
269 Jil Bourton Warrondi Just Ace 22 13:53:00 10.7, 12.8, 12.9, 10.1 11.52 55, 44, 52, 54, 55 (Avg:51)
294 Merv Brown Santana 23 13:58:00 12.3, 12.4, 12.9, 9.0 11.46 32, 38, 46, 44, 41 (Avg:42)
111 Michael Piper Brutus 24 14:03:00 12.6, 10.6, 13.0, 9.8 11.39 40, 44, 48, 55, 56 (Avg:50)
292 Doug Lockhart Ralvon Grace 25 14:21:00 10.5, 10.6, 13.6, 10.3 11.15 36, 48, 48, 46, 44 (Avg:46)
127 Helen Lindsay Burremah Djerribindo 26 14:32:00 10.4, 11.4, 14.0, 9.1 11.01 36, 40, 46, 49, 54 (Avg:47)
5 Jack Boswell Warrondi Eden 27 14:40:00 10.6, 12.0, 14.2, 8.3 10.91 38, 36, 45, 50, 44 (Avg:43)
62 Cherie Mahoney Tara Haven Matara 28 14:41:00 11.2, 11.6, 12.7, 8.7 10.90 34, 42, 48, 44, 42 (Avg:44)
27 David Grace Larabon Faidim 29 14:44:00 14.0, 11.4, 15.2, 6.9 10.86 64, 48, 48, 54, 52 (Avg:50)
11 Wayne Francis Cheekochee 30 15:07:00 10.6, 10.3, 11.1, 10.3 10.58 33, 50, 46, 50, 58 (Avg:51)
68 Wayne Parnham (Nz) Spotty Gandolf 30 15:07:00 10.5, 10.3, 11.1, 10.3 10.58 36, 40, 42, 48, 40 (Avg:42)
21 James Thiveos Lancefield Springtime 30 15:07:00 14.0, 9.4, 12.3, 8.3 10.58 32, 50, 50, 51, 41 (Avg:48)
170 Kim Harvey Nunyara 33 15:13:00 13.1, 11.7, 12.3, 7.2 10.51 32, 42, 48, 56, 48 (Avg:48)
235 Bob Sample Sharahd Caprice 33 15:13:00 13.1, 10.3, 12.6, 7.7 10.51 36, 48, 48, 46, 44 (Avg:46)
284 Patrick Burns Lord Arulis 35 15:18:00 12.1, 9.8, 11.5, 8.9 10.46 36, 42, 46, 49, 48 (Avg:46)
179 Michael O'Brien Little Takker 36 15:19:00 10.4, 10.3, 12.3, 9.1 10.45 40, 48, 54, 48, 48 (Avg:49)
125 Rowena Robinson Deakin Blue 36 15:19:00 11.5, 11.8, 10.3, 8.6 10.45 40, 42, 54, 50, 48 (Avg:48)
69 Georg Ridler (Swiss) Sarchedon 38 15:28:00 10.5, 11.5, 12.3, 8.0 10.34 32, 42, 36, 39, 38 (Avg:38)
214 Hans Peuker Patience 39 15:33:00 10.6, 10.3, 12.1, 8.5 10.29 34, 46, 52, 58, 53 (Avg:52)
147 Allan Caslick Richard 40 16:10:00 13.9, 11.2, 12.4, 6.1 9.90 36, 50, 44, 56, 56 (Avg:51)
246 Matthew Krahnen The Profit 41 16:17:00 10.3, 10.2, 10.7, 8.3 9.83 32, 48, 56, 48, 48 (Avg:50)
152 Jan Collins Gaziya 42 16:25:00 10.9, 11.3, 13.0, 6.5 9.75 32, 48, 48, 50, 46 (Avg:48)
156 Teena Hibberson Red Bandit 43 16:37:23 13.5, 12.6, 9.9, 6.1 9.63 40, 55, 56, 54, 45 (Avg:52)
90 Marj Gardner Bara Park Prince 44 16:40:00 12.9, 10.4, 11.4, 6.4 9.60 40, 48, 48, 49, 46 (Avg:47)
238 Carol Sparkes Zamfir 45 16:49:16 14.0, 13.9, 11.4, 5.2 9.51 32, 40, 44, 40, 40 (Avg:41)
49 Jessamy Berkholz Lansdown Crystal Bright 46 16:50:00 8.5, 9.9, 11.8, 8.3 9.50 42, 50, 48, 58, 58 (Avg:53)
151 Kristianne Kalen Chalbury Park Fashaan 47 16:53:00 13.4, 8.6, 10.6, 7.2 9.48 24, 44, 48, 48, 48 (Avg:47)
128 Faye Stockley Aloha Dominus 48 16:59:00 10.4, 9.0, 10.4, 8.1 9.42 32, 40, 48, 42, 45 (Avg:43)
193 Robin Kurrle Mathoura Juba 49 17:05:00 10.2, 9.1, 10.7, 7.8 9.37 38, 44, 44, 42, 44 (Avg:43)
239 John Thielen Cedardell Simon 50 17:06:36 10.6, 9.9, 11.8, 6.7 9.35 36, 44, 46, 42, 44 (Avg:44)
175 Catherine Wood Miss Mouse 51 17:09:00 10.6, 9.5, 11.5, 6.9 9.33 34, 40, 42, 44, 39 (Avg:41)
38 Heather Wood El Flinca 52 17:17:42 9.2, 9.3, 11.2, 7.8 9.25 36, 48, 44, 51, 44 (Avg:46)
159 Clayton Deudney Karakatana Royal Mark 53 17:23:00 8.9, 9.8, 10.6, 7.8 9.20 36, 40, 48, 45, 51 (Avg:46)
183 Sue May Vanay Park Ambassador 54 17:29:00 9.7, 8.3, 11.1, 7.9 9.15 36, 42, 42, 50, 42 (Avg:44)
122 Dominique Bennet Lassiter 55 17:50:00 10.5, 9.7, 10.4, 6.5 8.97 36, 42, 52, 52, 44 (Avg:47)
192 Sue Parsons Onegin 56 18:01:00 9.8, 9.5, 10.0, 6.8 8.88 30, 44, 48, 50, 52 (Avg:48)
60 Anna Ridley Karumba Inca 57 18:02:00 9.8, 9.5, 10.0, 6.8 8.87 46, 44, 44, 45, 42 (Avg:43)
133 Alexandra Treschow Karumba Travellers Joy 57 18:02:00 9.8, 9.5, 10.0, 6.8 8.87 44, 40, 46, 55, 44 (Avg:46)
40 Julie White Farashah 59 18:12:00 10.1, 8.7, 8.9, 7.6 8.79 32, 46, 50, 52, 50 (Avg:49)
219 Debi Chisholm He-S Jake 60 18:14:00 9.7, 7.9, 10.7, 7.4 8.78 48, 48, 46, 55, 45 (Avg:48)
176 Irene Harris Tarrangower Kamal 60 18:14:00 9.7, 7.9, 10.7, 7.4 8.78 32, 48, 54, 58, 45 (Avg:51)
296 Royce Martin Tapestry 62 18:18:00 9.1, 8.7, 10.3, 7.2 8.74 36, 48, 46, 48, 42 (Avg:46)
185 Derek Manning Bannerman 63 18:23:00 8.9, 8.6, 10.8, 7.1 8.70 40, 40, 40, 50, 52 (Avg:45)
295 Philip Gerke Animal 64 18:29:00 8.7, 9.3, 8.9, 7.7 8.66 36, 38, 50, 42, 45 (Avg:43)
35 Keryn Woolley Grey Power 64 18:29:00 8.7, 9.3, 8.9, 7.7 8.66 36, 48, 54, 54, 45 (Avg:50)
204 Arthur Patterson David 66 18:31:00 9.5, 8.5, 10.2, 6.9 8.64 28, 40, 48, 59, 48 (Avg:48)
290 Audrey Gardam Gala Swift 67 18:42:00 8.4, 9.1, 8.9, 7.7 8.56 36, 42, 48, 46, 54 (Avg:47)
293 Janine Mahoney Robian Applauz 67 18:42:00 8.4, 9.1, 8.9, 7.7 8.56 44, 40, 57, 48, 46 (Avg:47)
254 Peter Pike Sharahd Zora 69 18:50:00 9.6, 9.7, 9.6, 6.2 8.50 31, 36, 46, 47, 42 (Avg:42)
256 Deborah Wallace Glenallan Solitary Man 70 18:53:00 10.3, 9.2, 8.6, 6.5 8.47 32, 48, 45, 58, 54 (Avg:51)
213 Kylie Whitelaw Chief 70 18:53:00 9.7, 8.3, 10.3, 6.5 8.47 32, 52, 50, 54, 48 (Avg:51)
119 Jenny Robertson Kintamani Fosta 72 18:54:00 10.0, 8.7, 10.6, 6.0 8.47 38, 40, 48, 52, 40 (Avg:45)
163 Chris Cheney Coolaroo Kah-lea 73 19:02:00 11.0, 8.1, 7.6, 7.5 8.41 34, 50, 48, 52, 44 (Avg:48)
227 Catherine Muir Belevedere Sakhir 74 19:17:00 9.9, 8.2, 7.7, 7.5 8.30 36, 52, 54, 50, 42 (Avg:49)
41 Phillip Archer Stormy 75 19:18:00 9.5, 8.6, 8.6, 6.8 8.29 36, 46, 42, 46, 43 (Avg:44)
57 Dianne Curtis Mr-Dunno 76 19:23:00 8.9, 8.2, 8.6, 7.2 8.25 34, 43, 48, 44, 44 (Avg:44)
61 Don Elliot Saylo 77 19:25:00 9.8, 8.5, 7.0, 8.0 8.24 36, 51, 60, 56, 58 (Avg:56)
250 Olga Bartlett Jackson Brown 78 19:32:00 8.7, 8.7, 9.7, 6.3 8.19 40, 44, 50, 47, 44 (Avg:46)
54 Keith Thompson Bellrowen Fireglow 79 19:35:00 9.1, 8.4, 8.9, 6.6 8.17 36, 40, 44, 52, 42 (Avg:44)
224 Debbie McGaffin Sam 80 19:41:00 9.3, 8.3, 8.7, 6.6 8.13 36, 48, 42, 48, 39 (Avg:44)
272 Bruce Scott Brigadier 81 19:53:00 9.5, 8.1, 9.4, 6.0 8.05 36, 48, 52, 56, 47 (Avg:50)
166 Tracee Males Faraway Vivien 82 19:54:00 7.8, 8.1, 7.6, 8.6 8.04 36, 40, 44, 49, 42 (Avg:43)
273 Lesley Goslett Sherry 83 20:18:00 7.9, 7.7, 8.8, 7.1 7.88 42, 50, 48, 54, 46 (Avg:49)
274 Ady McIntosh Balgownie Matilda 83 20:18:00 7.9, 7.7, 8.8, 7.1 7.88 30, 42, 44, 42, 44 (Avg:43)
271 Ken Stephens Turbo 85 20:27:00 8.3, 6.4, 9.5, 7.6 7.82 40, 40, 58, 52, 50 (Avg:50)
264 Geoff Grummitt Moon Boy 86 20:33:00 7.6, 7.6, 8.2, 7.5 7.79 40, 50, 52, 59, 54 (Avg:53)
32 Ken Clarke Scotty 87 20:51:00 8.3, 7.1, 8.0, 7.2 7.67 32, 48, 50, 55, 42 (Avg:48)
281 Patrick Cremasco Moondyne Joe Lame L4 0:00:00 8.9, 8.6, 10.6, 6.9 - 30, 48, 52, 59, 58 (Avg:54)
215 Bryan Dupuy Sam Lame L4 0:00:00 9.5, 8.5, 10.2, 7.3 - 38, 44, 44, 48, 50 (Avg:46)
195 Jo-Anne Francis Gimli Lame L4 0:00:00 10.5, 10.3, 11.1, 10.3 - 32, 40, 44, 40, 42 (Avg:41)
81 Jenny Oliver Gungarlin Tollo Lame L4 0:00:00 14.3, 12.5, 15.5, 8.7 - 36, 48, 58, 59, 52 (Avg:54)
251 Bruce Overton Charabal Explorer Lame L4 0:00:00 13.9, 10.2, 12.8, 6.2 - 36, 44, 48, 52, 54 (Avg:49)
2 Jack Sims Fame Gall or injury L4 0:00:00 12.7, 9.9, 9.7, 5.8 - 36, 48, 50, 58, 56 (Avg:53)
232 Dean Stephen Domil Lame L4 0:00:00 13.2, 7.1, 10.5, 2.1 - 32, 50, 58, 56, 48 (Avg:53)
102 Katelyn Walker Parlour Mountain Kelly Lame L4 0:00:00 8.7, 9.7, 13.7, 7.9 - 36, 44, 45, 46, 46 (Avg:45)
3 Wally Webb Telltale Lame L4 0:00:00 14.9, 12.7, 16.3, 10.9 - 36, 46, 48, 57, 57 (Avg:52)
45 Tracey Wyllie Brewster Lame L4 0:00:00 12.9, 12.4, 15.0, 10.7 - 32, 44, 48, 48, 48 (Avg:47)
20 Roger Barbetti Woodlyn Najah Withdrawn L3 0:00:00 - - 36, 50, 52, 48 (Avg:50)
218 Jenny Bird Grace Lame L3 0:00:00 10.3, 10.2, 8.5 - 40, 52, 50, 50 (Avg:50)
44 Robert Corbett Coolmunda Trazarra Lame L3 0:00:00 7.6, 11.3, 10.9 - 38, 44, 52, 58 (Avg:51)
188 Julia Gauci Sayiba Tibult Heart Rate L3 0:00:00 7.8, 9.2, 9.1 - 33, 52, 45, 68 (Avg:55)
114 Rachel Harvey-Shore Judstan Kamaran Heart Rate L3 0:00:00 8.6, 10.3, 8.6 - 44, 50, 56, 62 (Avg:56)
249 Scott Hill Craig Darroch Rhaedar Heart Rate L3 0:00:00 14.0, 15.2, 17.9 - 42, 46, 51, 65 (Avg:54)
182 Mark Hughes Franklin Shamir Heart Rate L3 0:00:00 10.1, 9.9, 8.1 - 36, 50, 58, 64 (Avg:57)
186 Dorothy Hughes Eden Leigh Emir Dynamite Gall or injury L3 0:00:00 10.1, 9.9, 8.1 - 38, 50, 56, 58 (Avg:54)
95 Searle Johnston Binda Lame L3 0:00:00 10.1, 8.1, 9.0 - 36, 42, 48, 50 (Avg:46)
200 Geoffrey Jolly Sanroblee Yanco Lame L3 0:00:00 7.9, 8.1, 8.7 - 32, 44, 42, 46 (Avg:44)
198 Brian Keep Doran Park Idol Heart Rate L3 0:00:00 12.1, 12.1, 10.6 - 35, 48, 60, 72 (Avg:60)
231 Louise Lewis The Bear Lame L3 0:00:00 9.7, 9.6, 9.6 - 44, 51, 56, 59 (Avg:55)
141 Chris Malone Liana Lame L3 0:00:00 13.6, 13.1, 16.3 - 32, 50, 48, 48 (Avg:48)
155 Daniel Mannix Blue Withdrawn L3 0:00:00 - - 36, 48, 48, 50 (Avg:48)
172 Frank Mollema Elexis Lame L3 0:00:00 8.9, 9.4, 7.3 - 32, 47, 58, 52 (Avg:52)
28 Tim Perks Pete Withdrawn L3 0:00:00 - - 32, 44, 48, 57 (Avg:49)
199 Alan Salter Blazer Lame L3 0:00:00 11.7, 10.8, 13.0 - 36, 48, 44, 44 (Avg:45)
47 Janet Wann Balgownie Bronzewing Withdrawn L3 0:00:00 - - 36, 44, 48, 48 (Avg:46)
298 Allan Wyllie Bundy Lame L3 0:00:00 13.7, 13.1, 18.4 - 32, 44, 42, 48 (Avg:44)
258 Derek Armitage Sunny Jim Lame L2 0:00:00 9.4, 11.0 - 44, 44, 48 (Avg:46)
99 Annette Bailey Newbridge Jazaan Lame L2 0:00:00 8.7, 9.7 - 40, 44, 48 (Avg:46)
109 Lyn Bailey Faraway Reckless Heart Rate L2 0:00:00 8.9, 8.4 - 35, 42, 63 (Avg:52)
110 Adrian Bailey Lyndrian Arion Heart Rate L2 0:00:00 9.9, 8.4 - 36, 55, 67 (Avg:61)
19 Graeme Bamford Rizer Back L2 0:00:00 8.0, 8.8 - 30, 44, 48 (Avg:46)
278 Murray Dalton Southwinds Banjo Lame L2 0:00:00 11.9, 9.2 - 35, 53, 56 (Avg:54)
288 Peter Davis Siriz Emma Lame L2 0:00:00 12.1, 8.8 - 40, 46, 52 (Avg:49)
113 Laurie Dowling Henley Farm Ahsan Heart Rate L2 0:00:00 10.8, 9.1 - 40, 48, 68 (Avg:58)
194 Ian Drummond Ibn Light Heart Rate L2 0:00:00 11.0, 8.9 - 32, 44, 64 (Avg:54)
224A Fiona Finigan Doralmir Park Razana Heart Rate L2 0:00:00 11.7, 9.5 - 40, 48, 65 (Avg:56)
25 Simone Guy Snoopy Lame L2 0:00:00 12.7, 7.4 - 40, 42, 40 (Avg:41)
203 Sally Holmes Salvorak Heart Rate L2 0:00:00 9.0, 7.9 - 44, 50, 65 (Avg:57)
126 Gaye Kerr The Spade Lame L2 0:00:00 10.1, 10.3 - 36, 48, 60 (Avg:54)
18 Shirley Kowalski El Zayid Aaron Lame L2 0:00:00 13.4, 13.5 - 44, 48, 48 (Avg:48)
138 Patsie Manning Juanita Lame L2 0:00:00 8.9, 8.6 - 36, 36, 42 (Avg:39)
165 Noel Morrow Freckles Lame L2 0:00:00 9.5, 8.3 - 40, 48, 52 (Avg:50)
174 Julie Mustow Tel Baydr Withdrawn L2 0:00:00 - - 40, 48, 56 (Avg:52)
83 Melanie O'Flynn El Visto Marengo Lame L2 0:00:00 11.7, 10.6 - 30, 50, 46 (Avg:48)
202 Henry Perry Carinae Sundance Heart Rate L2 0:00:00 10.6, 7.5 - 42, 54, 65 (Avg:59)
116 John Robertson Karabil Bones Lame L2 0:00:00 9.7, 10.2 - 28, 44, 50 (Avg:47)
14 Alexa Ryhorchuk Pukwudji Withdrawn L2 0:00:00 - - 50, 52, 54 (Avg:53)
181 Richard Ryhorchuk Wamrums Moonlight Heart Rate L2 0:00:00 10.3, 9.2 - 32, 54, 72 (Avg:63)
208 Mike Sheldon Wenway Casheen Lame L2 0:00:00 12.6, 11.3 - 40, 42, 50 (Avg:46)
59 Marie Smith Jerry By Jove Withdrawn L2 0:00:00 - - 36, 40, 50 (Avg:45)
123 Cheryl Strachan Lyndrian Archer Heart Rate L2 0:00:00 8.8, 9.4 - 40, 42, 64 (Avg:53)
289 David Sulzberger Sayida Cleo Lame L2 0:00:00 11.8, 9.5 - 32, 48, 54 (Avg:51)
146 Arthur Waghorn Hansara Heart Rate L2 0:00:00 11.5, 12.6 - 32, 44, 72 (Avg:58)
124 Terry Wood Rokeby Jason Lame L2 0:00:00 15.1, 11.9 - 32, 40, 45 (Avg:42)
178 Peter Anderson Riviera Golden Pilgrim Lame L1 0:00:00 11.8 - 35, 46 (Avg:46)
162 Peter Bice Lyndrian Linus Lame L1 0:00:00 9.8 - 44, 48 (Avg:48)
259A Neville Clarke Monty Heart Rate L1 0:00:00 11.0 - 36, 68 (Avg:68)
150 Philippa Davis Santarabia Raskalla Lame L1 0:00:00 11.3 - 40, 53 (Avg:53)
65 Lawrence Fielding Yamas Lame L1 0:00:00 12.3 - 32, 44 (Avg:44)
76 Don Fraser Sunshine Heart Rate L1 0:00:00 9.1 - 36, 80 (Avg:80)
263 Gayle Holmes Faraway Verdict Lame L1 0:00:00 13.7 - 36, 40 (Avg:40)
206 June Kenton Slick Venus Lame L1 0:00:00 8.9 - 40, 52 (Avg:52)
131 Paul Krahnen Dots And Dashes Celebrity Heart Rate L1 0:00:00 12.7 - 60, 65 (Avg:65)
265 Jill Ross Fifty Bales Lame L1 0:00:00 11.8 - 38, 44 (Avg:44)
42 Michael Ruwaard Succession Lame L1 0:00:00 9.3 - 40, 47 (Avg:47)
56 Michael Scott Oscar Lame L1 0:00:00 7.9 - 42, 47 (Avg:47)
229 Graeme Seath Nugget Lame L1 0:00:00 9.3 - 31, 40 (Avg:40)
234 Allan Standfield Tazar Rose Lame L1 0:00:00 13.1 - 32, 48 (Avg:48)
112 Kim Stephens Henley Farm Difda Heart Rate L1 0:00:00 10.8 - 44, 64 (Avg:64)
136 Laurie Blowes Phasaad Withdrawn P/R 0:00:00 - - 0
107 Kerry Moore Cobber Withdrawn P/R 0:00:00 - - 0
148 Julie Reay Santarabia Manixy Withdrawn P/R 0:00:00 - - 0
106 Annette Thomas-Schumacher Hargee Lame P/R 0:00:00 - - 32
201 Keith Whitehead Vardi Lame P/R 0:00:00 - - 0
Lightweight
240 Bronwyn James Sharahd Brown Mystery 1 12:35:24 13.8, 11.5, 15.3, 10.9 12.71 40, 48, 48, 52, 51 (Avg:49)
132 Janette Harvey Faraway Rocalong 2 12:50:20 12.4, 13.2, 16.3, 9.5 12.46 32, 44, 54, 58, 52 (Avg:52)
26 Gina Chapman Digger 3 13:19:00 14.1, 10.9, 14.6, 9.7 12.02 36, 46, 44, 51, 54 (Avg:48)
217 Sally Cowan Charlies Girl 4 13:42:00 10.9, 11.8, 13.9, 10.5 11.68 48, 45, 45, 48, 48 (Avg:46)
129 Lorraine Lee Osterleys Ajax 5 13:43:00 13.1, 12.6, 14.9, 8.3 11.66 32, 44, 48, 51, 53 (Avg:49)
207 Janet Hunter Windsong Nazar 6 13:50:00 13.8, 12.5, 14.8, 7.8 11.57 48, 50, 51, 56, 50 (Avg:51)
33 Robyn Lindholm Floyd 7 13:58:00 13.4, 12.0, 13.7, 8.3 11.46 31, 46, 48, 49, 47 (Avg:47)
143 Gillian Petersohn Karakatana Aluf 8 14:01:00 11.5, 11.4, 12.8, 10.0 11.41 36, 42, 44, 46, 45 (Avg:44)
173 Janet Webb Pasco 9 14:14:15 11.0, 10.8, 13.6, 10.0 11.24 39, 46, 45, 51, 52 (Avg:48)
291 Jennie Stafford Glenleigh Shylo 10 14:26:00 11.9, 12.6, 11.6, 8.8 11.09 28, 48, 56, 54, 52 (Avg:52)
55 Lynette Wells Tarrendene Tessa 11 14:39:43 11.3, 10.3, 13.5, 9.2 10.91 38, 52, 46, 52, 50 (Avg:50)
223 Oenone Hibberd Bashah 12 15:18:25 11.4, 10.3, 11.9, 8.6 10.45 36, 44, 42, 49, 42 (Avg:44)
73 Samantha Obrien Ajana Storm Angel 13 16:41:40 13.5, 9.4, 10.8, 6.8 9.58 36, 46, 46, 50, 43 (Avg:46)
216 Linda McKay Glenleigh Domonic 14 16:50:06 8.5, 10.3, 11.3, 8.3 9.50 30, 45, 54, 48, 52 (Avg:49)
1 Kylie Rattray Kimbraha Sir-vivor 15 17:19:05 10.6, 11.1, 10.5, 6.4 9.24 40, 44, 54, 54, 56 (Avg:52)
189 Joyce Pilkington Karumba Cassidy 16 17:25:44 8.2, 9.8, 11.4, 8.0 9.18 32, 42, 48, 52, 48 (Avg:47)
248 Lesley Nancarrow Devil May Care 17 17:44:00 10.5, 9.4, 8.6, 7.8 9.02 36, 40, 48, 52, 44 (Avg:46)
191 Bronwyn Cuthbertson Copper 18 17:49:07 9.6, 8.4, 10.2, 7.9 8.98 34, 52, 52, 57, 50, 0 (Avg:42)
52 Kylie Peal El Shahb Elagance 19 17:57:18 10.7, 8.7, 8.9, 7.6 8.91 40, 48, 48, 48, 44 (Avg:47)
285 Pauline Birnie Solaway 20 18:05:10 8.4, 9.0, 11.4, 7.3 8.85 40, 44, 40, 44, 43 (Avg:42)
279 Joanna McCord Leedale Jadea 21 18:05:12 8.4, 9.0, 11.4, 7.3 8.85 48, 44, 42, 48, 42 (Avg:44)
108 Kerry-Anne Mcgufficke Kerrys Fella 22 18:08:40 12.7, 9.9, 9.7, 5.8 8.82 40, 44, 44, 54, 50 (Avg:48)
13 Jean Morton Southwinds Samantha 23 18:13:59 11.9, 9.2, 8.9, 6.5 8.78 48, 44, 54, 54, 42 (Avg:48)
74 Paul Marsh Jadelle 24 18:14:01 11.9, 9.2, 8.9, 6.5 8.78 36, 52, 48, 50, 42 (Avg:48)
53 Sandy Ross Warrondi Eire 25 18:27:00 9.4, 8.7, 8.9, 7.6 8.67 32, 42, 44, 48, 49 (Avg:45)
157 Linda Upsdell Aragon 26 18:28:34 9.7, 8.7, 8.9, 7.4 8.66 36, 48, 48, 52, 48 (Avg:49)
137 Helen Lane Saffryn 27 18:38:09 8.3, 8.6, 10.5, 7.3 8.59 36, 36, 51, 57, 42 (Avg:46)
259 Jo Hamilton-Branigan Woodlands Cade 28 19:22:22 8.4, 8.1, 9.1, 7.4 8.26 38, 46, 44, 56, 46 (Avg:48)
257 Sandra Pollitt Monivae Warloch 28 19:22:22 8.4, 8.1, 9.2, 7.4 8.26 38, 40, 42, 50, 52 (Avg:46)
270 Jan Cowell Kellara Silver Dawn 30 19:23:06 8.2, 8.9, 9.3, 6.9 8.25 32, 48, 59, 54, 48 (Avg:52)
142 Kristen Proudfoot Coco 31 19:24:00 10.1, 8.1, 9.0, 6.5 8.25 36, 50, 42, 50, 40 (Avg:45)
226 Joyce Davies Red Hill Boyanda 32 19:26:06 8.2, 8.9, 9.3, 6.8 8.23 36, 52, 60, 57, 54 (Avg:55)
93 Shirley Jamieson Sanroblee Cybluke 33 19:29:22 7.2, 9.5, 9.9, 6.9 8.21 48, 44, 48, 58, 48 (Avg:49)
58 Anne Moseley Beau 34 19:33:22 8.7, 7.8, 8.4, 7.7 8.18 38, 54, 52, 52, 56 (Avg:53)
34 Libby Martin Shara 35 20:51:40 8.3, 7.6, 7.4, 7.2 7.67 40, 48, 46, 48, 42 (Avg:46)
46 Linda Carney Cristy Lame L4 0:00:00 9.8, 8.0, 10.5, 6.0 - 32, 36, 42, 54, 42 (Avg:43)
180 Hazel McCort Franklin Rahna Metabolics L4 0:00:00 8.7, 9.7, 11.4, 8.0 - 38, 44, 40, 40, 59 (Avg:45)
145 Helen Rich Ranjen Bisset Lame L4 0:00:00 8.9, 8.6, 9.9, 6.9 - 32, 42, 40, 48, 44 (Avg:43)
43 Joan Sawyer Deepbank Brigadoon Lame L4 0:00:00 10.6, 9.5, 11.5, 6.9 - 50, 45, 46, 48, 46 (Avg:46)
252 Rose Freney Sharahd Cazeer Lame L3 0:00:00 13.2, 11.8, 17.7 - 34, 44, 45, 46 (Avg:45)
76A Heather Hawks Rimfire Heidi Back L3 0:00:00 10.0, 8.2, 8.9 - 48, 54, 54, 59 (Avg:55)
228 Kerry Jamieson Glentoo Alvereyn Heart Rate L3 0:00:00 7.9, 8.1, 8.7 - 40, 48, 57, 66 (Avg:57)
220 Sue Reed Sarah Heart Rate L3 0:00:00 8.9, 8.9, 12.6 - 36, 48, 42, 66 (Avg:52)
48 Robyn Snell Nabi-ss Lame L3 0:00:00 9.5, 7.8, 7.8 - 36, 44, 40, 60 (Avg:48)
51 Tracey Stewart Blue Heart Rate L3 0:00:00 14.9, 12.7, 16.3 - 36, 46, 48, 63 (Avg:52)
222 Meg Wade Iraki Zurich Lame L3 0:00:00 10.9, 11.2, 9.7 - 38, 36, 36, 52 (Avg:41)
261 Annette Law Hideaway Tramp Lame L2 0:00:00 13.1, 10.4 - 44, 48, 52 (Avg:50)
17 Nina Maselli Cabby Lame L2 0:00:00 7.9, 6.4 - 30, 48, 52 (Avg:50)
63 Joanne Morgan Toohey Lame L2 0:00:00 8.9, 8.2 - 34, 48, 46 (Avg:47)
149 John Symons Freeway Lame L2 0:00:00 12.1, 11.9 - 34, 50, 48 (Avg:49)
24 Cathy Wasley Thara Withdrawn L2 0:00:00 - - 46, 48, 50 (Avg:49)
115 Julie Bird Duke Lame L1 0:00:00 7.9 - 35, 48 (Avg:48)
230 Rachel Bohm Silver Ibn Zarak Withdrawn L1 0:00:00 - - 40, 48 (Avg:48)
153 Vanessa Bohm Blue Dominance Heart Rate L1 0:00:00 11.6 - 44, 58 (Avg:58)
27A Melinda Howell Waitara Gandhi Lame L1 0:00:00 9.4 - 36, 52 (Avg:52)
196 Richard Pollard April Showers Lame L1 0:00:00 9.2 - 46, 48 (Avg:48)
75 Gill Ryhorchuk Muskegs Misquitash Lame L1 0:00:00 4.0 - 40, 48 (Avg:48)
4 Jenni Van der Koogh Saracus Fiducia Lame L1 0:00:00 7.9 - 40, 48 (Avg:48)
171 Rachel Benad Karakatana Kyzyl Withdrawn P/R 0:00:00 - - 0
29 Sue Deering Toffee Metabolics P/R 0:00:00 - - 32
78 Debra Vernon Kharine Amara Withdrawn P/R 0:00:00 - - 45, 44 (Avg:44)
Junior
16 Michael Milne Nejd 1 11:59:30 14.2, 11.8, 17.7, 11.1 13.34 36, 44, 44, 50, 59 (Avg:49)
15 Patrick Sheldon Saracus Chiffon 2 12:29:31 12.6, 11.3, 15.1, 12.5 12.81 44, 44, 44, 52, 60 (Avg:50)
158 Michelle Birrell Wagga Kinsingh 3 12:40:25 12.9, 12.4, 15.2, 10.5 12.62 38, 44, 48, 54, 56 (Avg:50)
79 Natalie Innes Nattahl Lazan 4 12:40:45 11.9, 10.8, 17.1, 12.1 12.62 44, 48, 50, 48, 56 (Avg:50)
120 Sonia Bonham Santarabia Mazra 5 13:32:42 11.0, 10.9, 16.1, 10.6 11.81 40, 48, 48, 50, 59 (Avg:51)
105 Amanda Harvey Windella Badi'a 5 13:32:42 11.0, 10.9, 16.1, 10.6 11.81 40, 50, 50, 52, 52 (Avg:51)
187 Gavin Bartlett Just Lucky 7 18:59:47 8.7, 8.7, 9.7, 6.9 8.42 42, 40, 42, 54, 45 (Avg:45)
22 Cindy Hibberson Dusty 8 19:04:14 8.3, 8.7, 9.1, 7.5 8.39 34, 46, 52, 53, 42 (Avg:48)
70 Alexandra Perry Matta Mia Sadat 9 19:41:35 9.3, 8.3, 8.4, 6.8 8.12 44, 48, 48, 50, 48 (Avg:48)
266 Lori Grummitt Bahji Regina 10 20:33:26 7.6, 7.9, 7.9, 7.5 7.78 38, 48, 48, 50, 46 (Avg:48)
276 Sarah Shanahan Rusty Lame L4 0:00:00 12.6, 12.3, 15.4, 11.1 - 33, 48, 46, 52, 56 (Avg:50)
97 Elizabeth Williams Warden Bado Lame L4 0:00:00 12.7, 12.3, 13.9, 7.9 - 36, 52, 52, 55, 52 (Avg:52)
275 Melissa Brett Karumba Georgie Girl Heart Rate L3 0:00:00 9.8, 9.5, 10.0 - 38, 46, 50, 66 (Avg:54)
30 Kerrie Gabb Krs Lame L3 0:00:00 9.4, 11.4, 13.3 - 34, 40, 46, 56 (Avg:47)
71 Senta Garney Rocky Lame L3 0:00:00 9.8, 8.0, 10.4 - 27, 44, 42, 44 (Avg:43)
280 Nicole Pienaar Mokine Lame L3 0:00:00 7.9, 8.4, 8.5 - 36, 36, 40, 52 (Avg:42)
66 Natalie Iles Laurjil Sharina Lame L2 0:00:00 9.9, 11.2 - 32, 38, 54 (Avg:46)
7 Simone Banfield Zacharas Light Heart Rate L1 0:00:00 9.9 - 36, 60 (Avg:60)
154 David Bohm Kelkette Park Lyric Lame L1 0:00:00 14.1 - 36, 44 (Avg:44)
135 Leith Moore Aloha Galaxy Gall or injury L1 0:00:00 14.2 - 44, 46 (Avg:46)
36 Cindy Barrett Prudence Not started P/R 0:00:00 - - 44